Time;durP1;ratioP1;P1;durP2;ratioP2;P2;SDS_P1;SDS_P2;PMS_P1;PMS_P2;Temp;Humidity;BMP_temperature;BMP_pressure;BME280_temperature;BME280_humidity;BME280_pressure;Samples;Min_cycle;Max_cycle;Signal;HPM_P1;HPM_P2
2022/09/24 00:02:02;;;;;;;9.52;6.70;;;12.00;99.90;;;;;;5072044;28;20211;-66
2022/09/24 00:04:32;;;;;;;6.25;5.65;;;12.00;99.90;;;;;;5073041;28;20207;-67
2022/09/24 00:06:59;;;;;;;6.80;6.15;;;12.10;99.90;;;;;;5073326;28;20257;-67
2022/09/24 00:09:27;;;;;;;7.47;5.88;;;12.00;99.90;;;;;;5089035;28;20572;-66
2022/09/24 00:11:55;;;;;;;6.22;5.63;;;11.90;99.90;;;;;;5093193;28;20211;-66
2022/09/24 00:14:23;;;;;;;8.75;6.05;;;11.80;99.90;;;;;;5093238;28;20215;-66
2022/09/24 00:16:51;;;;;;;8.00;6.35;;;11.80;99.90;;;;;;5093269;28;20206;-66
2022/09/24 00:19:19;;;;;;;6.28;5.78;;;11.70;99.90;;;;;;5092851;28;20679;-66
2022/09/24 00:21:48;;;;;;;9.30;6.00;;;11.60;99.90;;;;;;5091209;28;20968;-67
2022/09/24 00:27:01;;;;;;;7.63;6.93;;;11.60;99.90;;;;;;5092343;28;20200;-67
2022/09/24 00:29:31;;;;;;;7.07;6.38;;;11.60;99.90;;;;;;5088384;28;20202;-67
2022/09/24 00:32:00;;;;;;;9.00;6.53;;;11.60;99.90;;;;;;5091983;28;20203;-67
2022/09/24 00:34:28;;;;;;;5.95;5.38;;;11.50;99.90;;;;;;5097790;28;20239;-67
2022/09/24 00:36:57;;;;;;;7.72;6.63;;;11.50;99.90;;;;;;5098337;28;20195;-67
2022/09/24 00:39:25;;;;;;;7.68;6.97;;;11.50;99.90;;;;;;5092500;28;20207;-67
2022/09/24 00:41:54;;;;;;;7.43;6.82;;;11.50;99.90;;;;;;5092142;28;20203;-67
2022/09/24 00:44:49;;;;;;;7.55;6.78;;;11.50;99.90;;;;;;5091761;28;20195;-67
2022/09/24 00:47:26;;;;;;;8.07;7.25;;;11.50;99.90;;;;;;5092952;28;20252;-67
2022/09/24 00:50:02;;;;;;;7.47;6.57;;;11.50;99.90;;;;;;5091887;28;20198;-67
2022/09/24 00:52:32;;;;;;;7.55;6.43;;;11.50;99.90;;;;;;5091928;28;20600;-67
2022/09/24 00:55:00;;;;;;;8.57;7.38;;;11.40;99.90;;;;;;5092039;28;20227;-67
2022/09/24 00:57:29;;;;;;;8.68;7.80;;;11.50;99.90;;;;;;5092090;28;20495;-67
2022/09/24 00:59:57;;;;;;;7.75;6.95;;;11.40;99.90;;;;;;5091505;28;20219;-67
2022/09/24 01:02:25;;;;;;;6.68;6.15;;;11.40;99.90;;;;;;5091924;28;20237;-68
2022/09/24 01:04:53;;;;;;;10.93;5.95;;;11.30;99.90;;;;;;5091815;28;20220;-67
2022/09/24 01:07:21;;;;;;;7.35;6.22;;;11.20;99.90;;;;;;5092154;28;20198;-67
2022/09/24 01:09:51;;;;;;;6.53;5.93;;;11.10;99.90;;;;;;5091999;28;20252;-67
2022/09/24 01:12:27;;;;;;;6.78;5.85;;;11.10;99.90;;;;;;5092386;28;20207;-68
2022/09/24 01:15:15;;;;;;;7.00;6.40;;;11.00;99.90;;;;;;5091499;28;20213;-67
2022/09/24 01:17:52;;;;;;;6.78;6.18;;;10.90;99.90;;;;;;5091946;28;20179;-67
2022/09/24 01:20:46;;;;;;;8.60;6.63;;;10.90;99.90;;;;;;5091662;28;20195;-68
2022/09/24 01:23:45;;;;;;;6.97;6.43;;;11.00;99.90;;;;;;5090968;28;20203;-67
2022/09/24 01:26:29;;;;;;;6.85;6.25;;;10.90;99.90;;;;;;5071574;28;20185;-67
2022/09/24 01:29:19;;;;;;;6.90;6.28;;;10.90;99.90;;;;;;5086327;28;20203;-66
2022/09/24 01:31:53;;;;;;;7.25;6.53;;;10.90;99.90;;;;;;5092036;28;20192;-66
2022/09/24 01:34:27;;;;;;;7.15;6.57;;;10.90;99.90;;;;;;5095544;28;20236;-66
2022/09/24 01:36:57;;;;;;;10.15;7.75;;;10.70;99.90;;;;;;5096100;28;20203;-66
2022/09/24 01:39:27;;;;;;;9.27;6.72;;;10.70;99.90;;;;;;5090672;28;20201;-67
2022/09/24 01:41:56;;;;;;;7.07;6.38;;;10.60;99.90;;;;;;5091787;28;20195;-67
2022/09/24 01:44:26;;;;;;;10.40;6.60;;;10.50;99.90;;;;;;5090034;28;20191;-67
2022/09/24 01:46:54;;;;;;;7.28;6.68;;;10.50;99.90;;;;;;5091348;28;20263;-67
2022/09/24 01:49:22;;;;;;;7.28;6.28;;;10.60;99.90;;;;;;5089676;28;20198;-67
2022/09/24 01:51:55;;;;;;;7.18;6.50;;;10.50;99.90;;;;;;5090731;28;20271;-67
2022/09/24 01:54:27;;;;;;;7.35;6.65;;;10.60;99.90;;;;;;5091888;28;20244;-67
2022/09/24 01:57:08;;;;;;;7.22;6.60;;;10.60;99.90;;;;;;5090741;28;20241;-67
2022/09/24 01:59:56;;;;;;;7.72;6.60;;;10.60;99.90;;;;;;5090808;28;20211;-67
2022/09/24 02:02:29;;;;;;;15.27;6.63;;;10.60;99.90;;;;;;5090607;28;20195;-67
2022/09/24 02:05:02;;;;;;;6.18;5.43;;;10.50;99.90;;;;;;5089343;28;20203;-67
2022/09/24 02:07:35;;;;;;;6.43;5.93;;;10.40;99.90;;;;;;5094633;28;20559;-67
2022/09/24 02:10:03;;;;;;;6.03;5.57;;;10.40;99.90;;;;;;5091117;28;20630;-67
2022/09/24 02:12:40;;;;;;;6.78;6.13;;;10.30;99.90;;;;;;5091161;28;20227;-67
2022/09/24 02:15:14;;;;;;;9.18;5.70;;;10.30;99.90;;;;;;5091163;28;20191;-67
2022/09/24 02:17:45;;;;;;;5.97;5.47;;;10.30;99.90;;;;;;5093402;28;20191;-67
2022/09/24 02:20:16;;;;;;;6.05;5.65;;;10.30;99.90;;;;;;5095196;28;20556;-67
2022/09/24 02:22:45;;;;;;;6.60;5.35;;;10.40;99.90;;;;;;5094521;28;20195;-67
2022/09/24 02:25:17;;;;;;;4.72;4.43;;;10.40;99.90;;;;;;5095174;28;20195;-67
2022/09/24 02:27:45;;;;;;;6.88;4.85;;;10.30;99.90;;;;;;5094146;28;20199;-67
2022/09/24 02:30:14;;;;;;;6.05;5.55;;;10.40;99.90;;;;;;5094624;28;20259;-67
2022/09/24 02:32:43;;;;;;;6.40;5.22;;;10.40;99.90;;;;;;5093256;28;20230;-67
2022/09/24 02:35:11;;;;;;;6.30;5.70;;;10.40;99.90;;;;;;5098002;28;20230;-67
2022/09/24 02:37:41;;;;;;;5.93;5.38;;;10.50;99.90;;;;;;5093449;28;20234;-67
2022/09/24 02:40:12;;;;;;;6.55;6.05;;;10.50;99.90;;;;;;5094480;28;20634;-67
2022/09/24 02:42:42;;;;;;;9.07;8.18;;;10.50;99.90;;;;;;5093201;28;20266;-67
2022/09/24 02:45:11;;;;;;;8.77;7.88;;;10.50;99.90;;;;;;5094707;28;20676;-67
2022/09/24 02:47:40;;;;;;;12.90;7.05;;;10.40;99.90;;;;;;5093834;28;20207;-67
2022/09/24 02:50:09;;;;;;;7.22;6.43;;;10.40;99.90;;;;;;5094217;28;20601;-67
2022/09/24 02:52:37;;;;;;;5.93;5.43;;;10.40;99.90;;;;;;5094257;28;20198;-67
2022/09/24 02:55:05;;;;;;;6.18;5.65;;;10.40;99.90;;;;;;5094682;28;20203;-67
2022/09/24 02:57:33;;;;;;;7.93;5.47;;;10.40;99.90;;;;;;5094314;28;20673;-67
2022/09/24 03:00:01;;;;;;;5.53;5.13;;;10.40;99.90;;;;;;5093517;28;20206;-67
2022/09/24 03:02:29;;;;;;;5.78;5.25;;;10.40;99.90;;;;;;5093525;28;20204;-67
2022/09/24 03:04:59;;;;;;;12.63;7.05;;;10.30;99.90;;;;;;5093887;28;20586;-67
2022/09/24 03:07:27;;;;;;;7.55;6.85;;;10.20;99.90;;;;;;5093955;28;20199;-67
2022/09/24 03:09:55;;;;;;;5.45;4.95;;;10.10;99.90;;;;;;5094057;28;20204;-67
2022/09/24 03:12:23;;;;;;;4.60;4.20;;;10.20;99.90;;;;;;5093624;28;20195;-67
2022/09/24 03:14:51;;;;;;;5.30;4.80;;;10.10;99.90;;;;;;5093093;28;20207;-68
2022/09/24 03:17:19;;;;;;;5.88;4.50;;;10.10;99.90;;;;;;5094447;28;20221;-67
2022/09/24 03:19:47;;;;;;;8.50;4.60;;;10.10;99.90;;;;;;5094256;28;20203;-67
2022/09/24 03:22:16;;;;;;;4.68;4.28;;;10.10;99.90;;;;;;5094689;28;20209;-67
2022/09/24 03:24:45;;;;;;;4.40;4.10;;;10.00;99.90;;;;;;5094037;28;20206;-67
2022/09/24 03:27:13;;;;;;;4.38;4.07;;;10.00;99.90;;;;;;5094394;28;20195;-67
2022/09/24 03:32:28;;;;;;;4.20;3.80;;;10.00;99.90;;;;;;5094478;28;20240;-67
2022/09/24 03:34:55;;;;;;;4.30;4.00;;;9.90;99.90;;;;;;5102774;28;20245;-67
2022/09/24 03:37:25;;;;;;;8.48;5.68;;;9.90;99.90;;;;;;5114579;28;20964;-67
2022/09/24 03:39:53;;;;;;;4.97;4.65;;;9.90;99.90;;;;;;5113806;28;20207;-67
2022/09/24 03:42:20;;;;;;;5.18;4.75;;;9.90;99.90;;;;;;5114158;28;20214;-67
2022/09/24 03:44:48;;;;;;;4.63;4.22;;;9.70;99.90;;;;;;5092318;28;20260;-67
2022/09/24 03:47:16;;;;;;;5.80;4.70;;;9.70;99.90;;;;;;5093001;28;20248;-67
2022/09/24 03:49:44;;;;;;;6.18;5.10;;;9.60;99.90;;;;;;5093221;28;20199;-67
2022/09/24 03:52:12;;;;;;;7.57;4.75;;;9.60;99.90;;;;;;5093773;28;20282;-67
2022/09/24 03:54:42;;;;;;;4.72;4.32;;;9.60;99.90;;;;;;5092995;28;20203;-67
2022/09/24 03:57:13;;;;;;;4.70;4.40;;;9.60;99.90;;;;;;5092100;28;20223;-67
2022/09/24 03:59:41;;;;;;;5.00;4.32;;;9.60;99.90;;;;;;5092684;28;20211;-67
2022/09/24 04:02:10;;;;;;;5.53;5.07;;;9.50;99.90;;;;;;5093635;28;20207;-67
2022/09/24 04:04:39;;;;;;;4.53;4.13;;;9.40;99.90;;;;;;5092944;28;20204;-67
2022/09/24 04:07:06;;;;;;;6.50;4.85;;;9.40;99.90;;;;;;5093503;28;20187;-67
2022/09/24 04:09:34;;;;;;;5.88;5.28;;;9.40;99.90;;;;;;5092441;28;20654;-67
2022/09/24 04:12:04;;;;;;;10.95;5.63;;;9.30;99.90;;;;;;5093165;28;20252;-67
2022/09/24 04:14:32;;;;;;;5.38;4.53;;;9.30;99.90;;;;;;5093010;28;20225;-67
2022/09/24 04:17:00;;;;;;;9.18;8.23;;;9.20;99.90;;;;;;5090751;28;20219;-67
2022/09/24 04:19:28;;;;;;;7.95;7.25;;;9.20;99.90;;;;;;5092654;28;20214;-67
2022/09/24 04:21:56;;;;;;;5.90;5.40;;;9.20;99.90;;;;;;5091795;28;20607;-67
2022/09/24 04:24:24;;;;;;;7.30;6.70;;;9.10;99.90;;;;;;5091934;28;20198;-67
2022/09/24 04:26:52;;;;;;;5.15;4.65;;;9.10;99.90;;;;;;5092952;28;20199;-67
2022/09/24 04:29:21;;;;;;;6.50;6.10;;;9.00;99.90;;;;;;5093110;28;20226;-67
2022/09/24 04:31:49;;;;;;;6.97;6.55;;;9.00;99.90;;;;;;5092614;28;20215;-67
2022/09/24 04:34:17;;;;;;;5.38;4.97;;;9.10;99.90;;;;;;5096423;28;20223;-67
2022/09/24 04:36:45;;;;;;;6.72;6.32;;;9.20;99.90;;;;;;5104663;28;20226;-67
2022/09/24 04:39:14;;;;;;;6.88;5.10;;;9.20;99.90;;;;;;5092088;28;20232;-67
2022/09/24 04:41:42;;;;;;;6.47;5.05;;;9.10;99.90;;;;;;5091827;28;20588;-67
2022/09/24 04:44:12;;;;;;;6.72;5.22;;;9.10;99.90;;;;;;5093074;28;20717;-67
2022/09/24 04:46:41;;;;;;;6.30;5.28;;;9.20;99.90;;;;;;5092328;28;20207;-67
2022/09/24 04:49:10;;;;;;;6.82;4.70;;;9.20;99.90;;;;;;5093025;28;20203;-67
2022/09/24 04:51:38;;;;;;;10.02;9.25;;;9.30;99.90;;;;;;5091835;28;20207;-67
2022/09/24 04:54:07;;;;;;;9.55;6.20;;;9.20;99.90;;;;;;5093577;28;20210;-67
2022/09/24 04:56:37;;;;;;;6.93;4.80;;;9.20;99.90;;;;;;5092259;28;20226;-67
2022/09/24 04:59:05;;;;;;;6.78;6.20;;;9.20;99.90;;;;;;5092748;28;20203;-67
2022/09/24 05:01:33;;;;;;;17.38;12.75;;;9.10;99.90;;;;;;5090594;28;20251;-67
2022/09/24 05:04:02;;;;;;;5.28;4.88;;;9.10;99.90;;;;;;5092578;28;20243;-67
2022/09/24 05:06:32;;;;;;;6.70;5.60;;;9.00;99.90;;;;;;5092179;28;20339;-67
2022/09/24 05:09:00;;;;;;;8.25;5.57;;;8.90;99.90;;;;;;5091574;28;20241;-67
2022/09/24 05:11:28;;;;;;;5.38;4.88;;;8.90;99.90;;;;;;5094685;28;20199;-67
2022/09/24 05:13:56;;;;;;;4.95;4.65;;;8.90;99.90;;;;;;5091568;28;20248;-67
2022/09/24 05:16:24;;;;;;;6.40;5.25;;;8.90;99.90;;;;;;5090497;28;20215;-67
2022/09/24 05:18:54;;;;;;;4.60;4.15;;;9.10;99.90;;;;;;5091874;28;20560;-67
2022/09/24 05:21:23;;;;;;;5.07;4.75;;;9.10;99.90;;;;;;5091578;28;20207;-67
2022/09/24 05:23:51;;;;;;;5.43;4.88;;;9.30;99.90;;;;;;5091268;28;20202;-67
2022/09/24 05:29:07;;;;;;;5.82;5.18;;;9.50;99.90;;;;;;5073659;28;20203;-67
2022/09/24 05:31:35;;;;;;;11.48;9.55;;;9.70;99.90;;;;;;5091599;28;20218;-67
2022/09/24 05:34:04;;;;;;;7.25;6.50;;;9.80;99.90;;;;;;5088973;28;20605;-67
2022/09/24 05:36:33;;;;;;;10.18;8.00;;;9.90;99.90;;;;;;5090076;28;20207;-67
2022/09/24 05:39:01;;;;;;;7.72;5.95;;;10.00;99.90;;;;;;5091893;28;20230;-67
2022/09/24 05:41:29;;;;;;;8.27;6.63;;;10.20;99.90;;;;;;5090587;28;20559;-67
2022/09/24 05:43:58;;;;;;;9.50;7.43;;;10.20;99.90;;;;;;5087977;28;20206;-67
2022/09/24 05:46:26;;;;;;;7.15;6.45;;;10.30;99.90;;;;;;5089662;28;20211;-67
2022/09/24 05:48:54;;;;;;;6.18;5.63;;;10.20;99.90;;;;;;5089537;28;20203;-67
2022/09/24 05:51:22;;;;;;;5.28;4.85;;;10.10;99.90;;;;;;5089187;28;20608;-67
2022/09/24 05:53:51;;;;;;;6.25;5.60;;;10.20;99.90;;;;;;5088586;28;20206;-67
2022/09/24 05:56:19;;;;;;;5.88;5.35;;;10.10;99.90;;;;;;5089990;28;20226;-67
2022/09/24 05:58:48;;;;;;;6.60;5.90;;;9.90;99.90;;;;;;5089063;28;20579;-67
2022/09/24 06:01:16;;;;;;;6.80;5.40;;;10.00;99.90;;;;;;5087370;28;20270;-67
2022/09/24 06:03:47;;;;;;;4.63;4.32;;;10.00;99.90;;;;;;5088288;28;20260;-67
2022/09/24 06:06:15;;;;;;;5.43;5.03;;;10.00;99.90;;;;;;5087507;28;20192;-67
2022/09/24 06:08:43;;;;;;;9.23;4.50;;;10.00;99.90;;;;;;5088848;28;20244;-67
2022/09/24 06:11:42;;;;;;;5.57;4.80;;;10.00;99.90;;;;;;4997091;28;20206;-67
2022/09/24 06:14:11;;;;;;;8.88;5.00;;;10.10;99.90;;;;;;4998406;28;20674;-67
2022/09/24 06:16:38;;;;;;;4.85;4.45;;;10.30;99.90;;;;;;5067514;28;20506;-67
2022/09/24 06:19:07;;;;;;;4.65;4.25;;;10.30;99.90;;;;;;5089466;28;20271;-67
2022/09/24 06:21:34;;;;;;;8.15;5.40;;;10.40;99.90;;;;;;5087685;28;20594;-67
2022/09/24 06:24:02;;;;;;;10.23;4.63;;;10.60;99.90;;;;;;5087413;28;20255;-67
2022/09/24 06:26:31;;;;;;;5.13;4.50;;;10.70;99.90;;;;;;5089903;28;20206;-67
2022/09/24 06:29:01;;;;;;;9.90;8.98;;;10.80;99.90;;;;;;5091512;28;20199;-67
2022/09/24 06:31:29;;;;;;;5.50;5.10;;;10.70;99.90;;;;;;5076511;28;20207;-67
2022/09/24 06:33:56;;;;;;;8.38;4.50;;;10.60;99.90;;;;;;5091031;28;20268;-67
2022/09/24 06:36:24;;;;;;;5.72;4.63;;;10.50;99.90;;;;;;5090842;28;20669;-67
2022/09/24 06:38:53;;;;;;;4.47;4.07;;;10.30;99.90;;;;;;5090097;28;20223;-67
2022/09/24 06:41:21;;;;;;;4.72;4.30;;;10.30;99.90;;;;;;5089081;28;20206;-67
2022/09/24 06:43:49;;;;;;;3.80;3.50;;;10.30;99.90;;;;;;5090131;28;20206;-67
2022/09/24 06:46:21;;;;;;;3.92;3.63;;;10.50;99.90;;;;;;5089211;28;20191;-67
2022/09/24 06:48:49;;;;;;;5.15;4.38;;;10.70;99.90;;;;;;5085585;28;20199;-67
2022/09/24 06:51:17;;;;;;;6.05;4.78;;;10.80;99.90;;;;;;5090353;28;20207;-67
2022/09/24 06:53:45;;;;;;;3.90;3.55;;;10.80;99.90;;;;;;5090573;28;20203;-67
2022/09/24 06:56:13;;;;;;;4.90;4.15;;;10.90;99.90;;;;;;5089714;28;20234;-67
2022/09/24 06:58:41;;;;;;;4.40;4.10;;;11.00;99.90;;;;;;5089993;28;20230;-67
2022/09/24 07:01:09;;;;;;;4.70;4.30;;;11.30;99.90;;;;;;5083803;28;20199;-67
2022/09/24 07:03:39;;;;;;;5.65;4.13;;;11.50;99.90;;;;;;5077296;28;20667;-67
2022/09/24 07:06:07;;;;;;;12.70;5.35;;;11.60;99.90;;;;;;5093690;28;20199;-67
2022/09/24 07:08:35;;;;;;;5.25;4.80;;;11.70;99.90;;;;;;5094382;28;20187;-67
2022/09/24 07:11:03;;;;;;;4.25;3.95;;;11.70;99.90;;;;;;5094313;28;20207;-68
2022/09/24 07:13:31;;;;;;;4.57;3.92;;;11.80;99.90;;;;;;5094378;28;20206;-68
2022/09/24 07:16:00;;;;;;;5.32;4.30;;;11.80;99.90;;;;;;5092543;28;20604;-68
2022/09/24 07:18:28;;;;;;;6.25;4.72;;;12.10;99.90;;;;;;5094059;28;20344;-67
2022/09/24 07:20:57;;;;;;;5.95;4.28;;;12.20;99.90;;;;;;5094462;28;20226;-67
2022/09/24 07:23:26;;;;;;;7.85;5.25;;;12.20;99.90;;;;;;5092954;28;20214;-68
2022/09/24 07:25:56;;;;;;;9.50;5.10;;;12.30;99.90;;;;;;5094055;28;20207;-68
2022/09/24 07:28:24;;;;;;;6.22;4.90;;;12.40;99.90;;;;;;5093732;28;20195;-68
2022/09/24 07:30:57;;;;;;;4.65;4.30;;;12.50;99.90;;;;;;5094167;28;20202;-68
2022/09/24 07:33:25;;;;;;;4.25;3.95;;;12.50;99.90;;;;;;5094049;28;20196;-67
2022/09/24 07:35:53;;;;;;;4.32;4.00;;;12.50;99.90;;;;;;5094002;28;20242;-68
2022/09/24 07:38:22;;;;;;;5.47;4.97;;;12.70;99.90;;;;;;5090785;28;20223;-68
2022/09/24 07:40:53;;;;;;;6.67;5.00;;;12.90;99.90;;;;;;5092912;28;20640;-67
2022/09/24 07:43:21;;;;;;;5.03;4.63;;;13.00;99.90;;;;;;5092835;28;20597;-67
2022/09/24 07:45:49;;;;;;;10.60;5.33;;;13.00;99.90;;;;;;5091657;28;20653;-67
2022/09/24 07:48:18;;;;;;;6.70;4.50;;;13.10;99.90;;;;;;5089369;28;20619;-67
2022/09/24 07:50:46;;;;;;;4.83;4.37;;;13.20;99.90;;;;;;5094094;28;20998;-68
2022/09/24 07:53:15;;;;;;;7.23;4.63;;;13.30;99.90;;;;;;5092611;28;20608;-68
2022/09/24 07:55:45;;;;;;;7.63;5.07;;;13.60;99.90;;;;;;5093079;28;20636;-67
2022/09/24 07:58:14;;;;;;;9.37;5.43;;;13.70;99.90;;;;;;5093149;28;20668;-68
2022/09/24 08:00:42;;;;;;;5.80;5.30;;;13.80;99.90;;;;;;5093614;28;20718;-67
2022/09/24 08:03:10;;;;;;;10.17;5.70;;;14.00;99.90;;;;;;5093556;28;21028;-68
2022/09/24 08:05:43;;;;;;;7.40;4.93;;;13.90;99.90;;;;;;5091658;28;20961;-67
2022/09/24 08:08:11;;;;;;;5.20;4.73;;;13.80;99.90;;;;;;5092891;28;20607;-67
2022/09/24 08:10:40;;;;;;;5.10;4.47;;;13.80;99.90;;;;;;5093032;28;20638;-67
2022/09/24 08:13:12;;;;;;;6.77;5.60;;;13.80;99.90;;;;;;5098014;28;20657;-68
2022/09/24 08:15:40;;;;;;;5.30;4.90;;;13.80;99.90;;;;;;5112822;28;20624;-68
2022/09/24 08:18:08;;;;;;;5.03;4.30;;;13.60;99.90;;;;;;5093612;28;20617;-68
2022/09/24 08:20:37;;;;;;;5.37;4.87;;;13.50;99.90;;;;;;5093091;28;20604;-67
2022/09/24 08:23:08;;;;;;;13.10;4.50;;;13.50;99.90;;;;;;5093191;28;21020;-67
2022/09/24 08:25:36;;;;;;;10.03;4.80;;;13.50;99.90;;;;;;5092844;28;21193;-67
2022/09/24 08:28:05;;;;;;;8.43;4.80;;;13.60;99.90;;;;;;5093366;28;20604;-67
2022/09/24 08:30:36;;;;;;;5.43;4.43;;;13.70;99.90;;;;;;5092543;28;21243;-66
2022/09/24 08:33:05;;;;;;;4.90;4.50;;;13.80;99.90;;;;;;5093640;28;20578;-66
2022/09/24 08:35:34;;;;;;;5.47;3.90;;;13.80;99.90;;;;;;5106533;28;20660;-66
2022/09/24 08:38:02;;;;;;;4.90;4.33;;;13.70;99.90;;;;;;5113889;28;20620;-66
2022/09/24 08:40:36;;;;;;;7.90;4.97;;;13.80;99.90;;;;;;5092573;28;20650;-67
2022/09/24 08:43:16;;;;;;;10.93;6.33;;;13.80;99.90;;;;;;5092229;28;20620;-67
2022/09/24 08:48:41;;;;;;;11.03;6.77;;;14.30;99.90;;;;;;5090262;28;21251;-67
2022/09/24 08:51:16;;;;;;;7.13;6.47;;;14.50;99.90;;;;;;5093143;28;20562;-66
2022/09/24 08:53:49;;;;;;;5.50;5.00;;;14.70;99.90;;;;;;5093285;28;20585;-67
2022/09/24 08:56:20;;;;;;;7.40;5.20;;;14.90;99.90;;;;;;5091887;28;20644;-66
2022/09/24 08:58:53;;;;;;;6.30;5.70;;;15.00;99.90;;;;;;5092561;28;20619;-66
2022/09/24 09:01:33;;;;;;;10.13;5.83;;;15.20;99.90;;;;;;5091963;28;20587;-66
2022/09/24 09:04:12;;;;;;;5.17;4.80;;;15.00;99.90;;;;;;5082406;28;21115;-65
2022/09/24 09:07:01;;;;;;;9.07;5.40;;;14.90;99.90;;;;;;5092068;28;20613;-65
2022/09/24 09:09:43;;;;;;;5.83;5.07;;;15.00;99.90;;;;;;5086024;28;20658;-66
2022/09/24 09:12:15;;;;;;;5.63;4.87;;;15.20;99.90;;;;;;5092253;28;20609;-67
2022/09/24 09:14:49;;;;;;;9.33;5.17;;;15.30;99.90;;;;;;5091994;28;20629;-67
2022/09/24 09:17:31;;;;;;;6.10;5.50;;;15.40;99.90;;;;;;5092574;28;20595;-66
2022/09/24 09:20:04;;;;;;;5.87;4.83;;;15.60;99.90;;;;;;5091759;28;21074;-67
2022/09/24 09:22:39;;;;;;;5.50;5.10;;;15.40;99.90;;;;;;5089984;28;20652;-67
2022/09/24 09:25:19;;;;;;;6.17;5.57;;;15.30;99.90;;;;;;5098161;28;20622;-65
2022/09/24 09:27:51;;;;;;;9.67;5.53;;;15.50;99.90;;;;;;5100561;27;20664;-65
2022/09/24 09:30:33;;;;;;;5.40;5.00;;;16.00;99.90;;;;;;5086584;28;20631;-65
2022/09/24 09:33:17;;;;;;;6.20;5.60;;;15.80;99.90;;;;;;5070117;28;20605;-67
2022/09/24 09:35:55;;;;;;;7.37;4.80;;;15.90;99.90;;;;;;5103702;28;20625;-67
2022/09/24 09:38:29;;;;;;;5.97;5.47;;;15.90;99.90;;;;;;5093366;28;21067;-66
2022/09/24 09:41:03;;;;;;;6.17;5.67;;;16.40;99.90;;;;;;5090652;28;21270;-66
2022/09/24 09:43:31;;;;;;;10.90;5.67;;;16.20;99.90;;;;;;5096426;28;20642;-66
2022/09/24 09:46:12;;;;;;;7.40;5.80;;;15.90;99.90;;;;;;5094394;28;21149;-66
2022/09/24 09:48:46;;;;;;;6.27;5.30;;;16.00;99.90;;;;;;5098938;28;20590;-66
2022/09/24 09:51:19;;;;;;;6.90;4.90;;;16.10;99.90;;;;;;5100446;28;20632;-66
2022/09/24 09:53:58;;;;;;;5.40;5.00;;;16.40;99.90;;;;;;5091811;28;20609;-66
2022/09/24 09:56:44;;;;;;;4.80;4.47;;;16.20;99.90;;;;;;5089398;28;20649;-66
2022/09/24 09:59:18;;;;;;;5.40;4.90;;;16.10;99.90;;;;;;5091428;28;20702;-66
2022/09/24 10:01:49;;;;;;;5.87;4.50;;;16.00;99.90;;;;;;5091432;28;20593;-66
2022/09/24 10:04:36;;;;;;;4.47;4.00;;;16.00;99.90;;;;;;5075334;28;20588;-66
2022/09/24 10:07:06;;;;;;;4.90;4.50;;;16.50;99.90;;;;;;5091324;28;20599;-66
2022/09/24 10:09:34;;;;;;;4.67;4.23;;;16.50;99.90;;;;;;5091095;28;20616;-66
2022/09/24 10:12:17;;;;;;;6.43;4.77;;;16.50;99.90;;;;;;5086809;28;21020;-66
2022/09/24 10:15:17;;;;;;;6.83;4.97;;;16.40;99.90;;;;;;5080779;28;20655;-66
2022/09/24 10:17:46;;;;;;;4.73;4.37;;;16.60;99.90;;;;;;5091649;28;20577;-66
2022/09/24 10:20:21;;;;;;;5.33;4.93;;;16.80;99.90;;;;;;5090736;28;20680;-66
2022/09/24 10:22:52;;;;;;;5.43;4.93;;;16.60;99.90;;;;;;5090781;28;20601;-66
2022/09/24 10:25:25;;;;;;;5.50;4.53;;;16.60;99.90;;;;;;5091063;28;20584;-66
2022/09/24 10:30:32;;;;;;;7.00;5.20;;;16.70;99.90;;;;;;5090820;28;20641;-66
2022/09/24 10:30:52;;;;;;;11.63;5.60;;;16.80;99.90;;;;;;5090882;28;20584;-66
2022/09/24 10:33:36;;;;;;;5.10;4.70;;;16.70;99.90;;;;;;5089791;28;20603;-66
2022/09/24 10:36:13;;;;;;;9.83;5.60;;;16.60;99.90;;;;;;5109681;28;20596;-66
2022/09/24 10:38:42;;;;;;;10.63;6.07;;;16.80;99.90;;;;;;5095996;28;20984;-66
2022/09/24 10:41:24;;;;;;;7.23;5.20;;;16.90;99.90;;;;;;5074428;28;20658;-66
2022/09/24 10:43:54;;;;;;;8.10;5.27;;;16.80;99.90;;;;;;5092649;28;21179;-66
2022/09/24 10:46:54;;;;;;;5.60;5.20;;;16.80;99.90;;;;;;5094209;28;20628;-66
2022/09/24 10:49:38;;;;;;;7.10;5.00;;;16.90;99.90;;;;;;5094832;28;20596;-66
2022/09/24 10:52:18;;;;;;;5.23;4.83;;;16.90;99.90;;;;;;5093314;28;20629;-66
2022/09/24 10:54:57;;;;;;;4.83;4.40;;;17.10;99.90;;;;;;5095192;28;20580;-66
2022/09/24 10:57:45;;;;;;;5.73;4.40;;;17.00;99.90;;;;;;5091454;28;21229;-66
2022/09/24 11:00:19;;;;;;;5.70;5.20;;;17.10;99.90;;;;;;5093827;28;20619;-66
2022/09/24 11:03:26;;;;;;;15.90;11.40;;;17.10;99.90;;;;;;5089120;28;21122;-66
2022/09/24 11:06:00;;;;;;;6.00;5.40;;;17.10;99.90;;;;;;5088948;28;20958;-66
2022/09/24 11:08:51;;;;;;;9.63;4.67;;;17.20;99.90;;;;;;5091395;28;20612;-66
2022/09/24 11:11:31;;;;;;;6.30;4.73;;;17.50;99.90;;;;;;5091208;28;20610;-66
2022/09/24 11:14:35;;;;;;;8.13;4.90;;;17.50;99.90;;;;;;5091719;28;21003;-66
2022/09/24 11:17:37;;;;;;;7.20;5.60;;;17.50;99.90;;;;;;5038073;28;20709;-66
2022/09/24 11:20:24;;;;;;;8.97;6.00;;;17.50;99.90;;;;;;5092938;28;20633;-66
2022/09/24 11:23:21;;;;;;;9.00;5.50;;;17.80;99.90;;;;;;5093447;28;20613;-66
2022/09/24 11:25:59;;;;;;;5.30;4.90;;;17.80;99.90;;;;;;5074059;28;20629;-66
2022/09/24 11:28:47;;;;;;;5.70;5.10;;;17.80;99.90;;;;;;5090844;28;21276;-66
2022/09/24 11:31:25;;;;;;;5.47;5.00;;;18.20;99.90;;;;;;5088597;28;20589;-67
2022/09/24 11:34:11;;;;;;;6.17;5.60;;;18.40;99.90;;;;;;5093687;28;20603;-66
2022/09/24 11:36:50;;;;;;;7.60;6.47;;;18.10;99.90;;;;;;5103458;28;20628;-66
2022/09/24 11:39:41;;;;;;;5.47;5.07;;;18.40;99.90;;;;;;5094058;28;20613;-66
2022/09/24 11:42:22;;;;;;;7.90;7.20;;;18.20;99.90;;;;;;5093242;28;20625;-66
2022/09/24 11:45:28;;;;;;;5.13;4.73;;;18.50;99.90;;;;;;5092888;28;20611;-67
2022/09/24 11:48:23;;;;;;;5.07;4.67;;;19.00;99.90;;;;;;5093746;28;20576;-66
2022/09/24 11:51:08;;;;;;;5.40;5.00;;;19.10;99.90;;;;;;5091742;28;20632;-66
2022/09/24 11:53:41;;;;;;;6.83;5.17;;;19.40;99.90;;;;;;5093422;28;21019;-66
2022/09/24 11:56:17;;;;;;;6.17;5.50;;;19.10;99.90;;;;;;5092871;28;20644;-66
2022/09/24 11:58:51;;;;;;;9.13;5.30;;;19.30;99.90;;;;;;5091240;28;21034;-66
2022/09/24 12:01:23;;;;;;;5.90;5.40;;;18.90;99.90;;;;;;5093416;28;20646;-66
2022/09/24 12:03:57;;;;;;;5.70;5.27;;;18.70;99.90;;;;;;5092932;28;20612;-66
2022/09/24 12:06:31;;;;;;;5.13;4.80;;;18.90;99.90;;;;;;5093240;28;20591;-66
2022/09/24 12:09:05;;;;;;;4.80;4.40;;;19.00;99.90;;;;;;5093168;28;20608;-66
2022/09/24 12:11:40;;;;;;;5.10;4.70;;;19.60;99.90;;;;;;5091102;28;20625;-66
2022/09/24 12:14:17;;;;;;;4.83;4.43;;;20.00;99.90;;;;;;5092746;28;20605;-66
2022/09/24 12:17:06;;;;;;;5.17;4.80;;;19.70;99.90;;;;;;5092687;28;21262;-67
2022/09/24 12:19:39;;;;;;;4.53;4.20;;;19.40;99.90;;;;;;5092881;28;20609;-66
2022/09/24 12:22:09;;;;;;;5.13;3.80;;;19.20;99.90;;;;;;5091500;28;20653;-67
2022/09/24 12:24:43;;;;;;;10.37;4.60;;;19.40;99.90;;;;;;5075335;28;20589;-66
2022/09/24 12:27:13;;;;;;;5.50;4.30;;;19.60;99.90;;;;;;5091721;28;20674;-66
2022/09/24 12:32:55;;;;;;;5.17;3.97;;;19.30;99.90;;;;;;5016849;28;21182;-66
2022/09/24 12:35:35;;;;;;;3.90;3.70;;;19.30;99.90;;;;;;5104226;28;20658;-66
2022/09/24 12:38:34;;;;;;;3.70;3.50;;;19.50;99.90;;;;;;5079821;28;20648;-66
2022/09/24 12:41:23;;;;;;;3.73;3.50;;;19.40;99.90;;;;;;5092899;28;20656;-68
2022/09/24 12:43:57;;;;;;;5.40;4.60;;;19.90;99.90;;;;;;5092135;28;20609;-68
2022/09/24 12:46:31;;;;;;;6.77;3.70;;;19.80;99.90;;;;;;5084550;28;20968;-68
2022/09/24 12:49:00;;;;;;;4.57;4.10;;;19.60;99.90;;;;;;5093087;28;20632;-68
2022/09/24 12:51:38;;;;;;;4.37;3.90;;;19.60;99.90;;;;;;5091173;28;20614;-68
2022/09/24 12:54:08;;;;;;;6.70;4.33;;;19.60;99.90;;;;;;5090996;28;20608;-68
2022/09/24 12:56:39;;;;;;;4.90;4.50;;;19.30;99.90;;;;;;5091915;28;21275;-68
2022/09/24 12:59:24;;;;;;;4.80;3.70;;;19.40;99.90;;;;;;5092791;28;20616;-68
2022/09/24 13:01:54;;;;;;;5.50;4.10;;;19.90;99.90;;;;;;5092097;28;21194;-68
2022/09/24 13:04:29;;;;;;;5.07;4.20;;;20.70;99.90;;;;;;5092871;28;20616;-68
2022/09/24 13:06:56;;;;;;;4.90;4.03;;;20.50;99.90;;;;;;5092461;28;21205;-68
2022/09/24 13:09:33;;;;;;;8.07;3.90;;;20.60;99.90;;;;;;5092670;28;20612;-68
2022/09/24 13:12:04;;;;;;;3.90;3.60;;;21.00;99.90;;;;;;5091064;28;20577;-68
2022/09/24 13:14:34;;;;;;;4.47;4.00;;;21.90;99.90;;;;;;5091507;28;20582;-68
2022/09/24 13:17:07;;;;;;;4.80;3.97;;;22.90;99.90;;;;;;5086204;28;20683;-68
2022/09/24 13:19:39;;;;;;;4.77;4.37;;;22.30;99.90;;;;;;5071976;28;20638;-68
2022/09/24 13:22:21;;;;;;;3.90;3.70;;;21.20;99.90;;;;;;5074985;28;20645;-68
2022/09/24 13:24:51;;;;;;;6.63;4.70;;;21.30;99.90;;;;;;5087026;28;20632;-68
2022/09/24 13:27:36;;;;;;;5.33;4.50;;;20.70;99.90;;;;;;5091781;28;20636;-68
2022/09/24 13:30:18;;;;;;;4.67;4.23;;;21.00;99.90;;;;;;5091163;28;20665;-68
2022/09/24 13:32:53;;;;;;;4.50;4.10;;;21.10;99.90;;;;;;5091932;28;20619;-68